sensor_id;sensor_type;location;lat;lon;timestamp;P1;durP1;ratioP1;P2;durP2;ratioP2
77880;SDS011;67077;50.298;18.996;2023-05-10T00:00:07;12.80;;;6.80;;
77880;SDS011;67077;50.298;18.996;2023-05-10T00:03:08;12.70;;;7.50;;
77880;SDS011;67077;50.298;18.996;2023-05-10T00:05:37;13.80;;;7.10;;
77880;SDS011;67077;50.298;18.996;2023-05-10T00:08:05;11.50;;;7.30;;
77880;SDS011;67077;50.298;18.996;2023-05-10T00:10:33;14.90;;;7.30;;
77880;SDS011;67077;50.298;18.996;2023-05-10T00:13:01;12.70;;;7.00;;
77880;SDS011;67077;50.298;18.996;2023-05-10T00:15:29;12.30;;;6.40;;
77880;SDS011;67077;50.298;18.996;2023-05-10T00:18:02;12.40;;;6.30;;
77880;SDS011;67077;50.298;18.996;2023-05-10T00:20:30;12.70;;;7.00;;
77880;SDS011;67077;50.298;18.996;2023-05-10T00:22:58;13.60;;;7.00;;
77880;SDS011;67077;50.298;18.996;2023-05-10T00:25:26;10.80;;;6.90;;
77880;SDS011;67077;50.298;18.996;2023-05-10T00:27:54;13.30;;;6.90;;
77880;SDS011;67077;50.298;18.996;2023-05-10T00:30:25;14.40;;;7.50;;
77880;SDS011;67077;50.298;18.996;2023-05-10T00:32:53;13.60;;;7.00;;
77880;SDS011;67077;50.298;18.996;2023-05-10T00:35:21;14.90;;;7.40;;
77880;SDS011;67077;50.298;18.996;2023-05-10T00:37:49;12.40;;;7.00;;
77880;SDS011;67077;50.298;18.996;2023-05-10T00:40:17;14.10;;;7.10;;
77880;SDS011;67077;50.298;18.996;2023-05-10T00:42:45;12.10;;;6.80;;
77880;SDS011;67077;50.298;18.996;2023-05-10T00:45:13;11.00;;;6.90;;
77880;SDS011;67077;50.298;18.996;2023-05-10T00:47:41;13.70;;;6.80;;
77880;SDS011;67077;50.298;18.996;2023-05-10T00:50:10;15.00;;;7.70;;
77880;SDS011;67077;50.298;18.996;2023-05-10T00:52:38;14.10;;;7.10;;
77880;SDS011;67077;50.298;18.996;2023-05-10T00:55:06;14.10;;;7.30;;
77880;SDS011;67077;50.298;18.996;2023-05-10T00:57:35;13.80;;;7.30;;
77880;SDS011;67077;50.298;18.996;2023-05-10T01:00:03;13.40;;;7.10;;
77880;SDS011;67077;50.298;18.996;2023-05-10T01:02:33;14.00;;;7.60;;
77880;SDS011;67077;50.298;18.996;2023-05-10T01:05:03;11.10;;;7.10;;
77880;SDS011;67077;50.298;18.996;2023-05-10T01:07:31;14.00;;;7.70;;
77880;SDS011;67077;50.298;18.996;2023-05-10T01:10:00;13.40;;;7.60;;
77880;SDS011;67077;50.298;18.996;2023-05-10T01:12:29;12.80;;;7.60;;
77880;SDS011;67077;50.298;18.996;2023-05-10T01:14:57;13.90;;;7.60;;
77880;SDS011;67077;50.298;18.996;2023-05-10T01:17:26;12.90;;;7.30;;
77880;SDS011;67077;50.298;18.996;2023-05-10T01:19:54;13.30;;;7.30;;
77880;SDS011;67077;50.298;18.996;2023-05-10T01:31:22;12.00;;;7.00;;
77880;SDS011;67077;50.298;18.996;2023-05-10T01:36:40;15.00;;;6.30;;
77880;SDS011;67077;50.298;18.996;2023-05-10T01:39:28;13.90;;;7.30;;
77880;SDS011;67077;50.298;18.996;2023-05-10T01:42:08;16.50;;;7.70;;
77880;SDS011;67077;50.298;18.996;2023-05-10T01:47:54;13.80;;;7.10;;
77880;SDS011;67077;50.298;18.996;2023-05-10T01:50:27;14.30;;;7.70;;
77880;SDS011;67077;50.298;18.996;2023-05-10T01:52:58;15.90;;;7.30;;
77880;SDS011;67077;50.298;18.996;2023-05-10T01:55:30;11.90;;;6.50;;
77880;SDS011;67077;50.298;18.996;2023-05-10T01:58:03;14.70;;;6.80;;
77880;SDS011;67077;50.298;18.996;2023-05-10T02:00:37;11.30;;;6.70;;
77880;SDS011;67077;50.298;18.996;2023-05-10T02:03:10;12.70;;;6.90;;
77880;SDS011;67077;50.298;18.996;2023-05-10T02:05:43;12.50;;;6.80;;
77880;SDS011;67077;50.298;18.996;2023-05-10T02:08:13;14.20;;;7.10;;
77880;SDS011;67077;50.298;18.996;2023-05-10T02:10:45;14.70;;;7.30;;
77880;SDS011;67077;50.298;18.996;2023-05-10T02:13:16;15.70;;;7.40;;
77880;SDS011;67077;50.298;18.996;2023-05-10T02:15:46;16.40;;;6.90;;
77880;SDS011;67077;50.298;18.996;2023-05-10T02:18:18;10.60;;;6.60;;
77880;SDS011;67077;50.298;18.996;2023-05-10T02:20:46;13.80;;;7.40;;
77880;SDS011;67077;50.298;18.996;2023-05-10T02:23:15;14.50;;;7.50;;
77880;SDS011;67077;50.298;18.996;2023-05-10T02:25:45;11.90;;;7.00;;
77880;SDS011;67077;50.298;18.996;2023-05-10T02:28:16;15.20;;;6.90;;
77880;SDS011;67077;50.298;18.996;2023-05-10T02:30:45;11.60;;;6.60;;
77880;SDS011;67077;50.298;18.996;2023-05-10T02:33:15;13.40;;;7.10;;
77880;SDS011;67077;50.298;18.996;2023-05-10T02:35:44;11.30;;;6.40;;
77880;SDS011;67077;50.298;18.996;2023-05-10T02:38:13;11.60;;;6.30;;
77880;SDS011;67077;50.298;18.996;2023-05-10T02:40:42;12.80;;;6.40;;
77880;SDS011;67077;50.298;18.996;2023-05-10T02:43:14;10.40;;;6.40;;
77880;SDS011;67077;50.298;18.996;2023-05-10T02:45:46;13.80;;;6.20;;
77880;SDS011;67077;50.298;18.996;2023-05-10T02:48:15;13.00;;;6.50;;
77880;SDS011;67077;50.298;18.996;2023-05-10T02:50:44;12.10;;;6.20;;
77880;SDS011;67077;50.298;18.996;2023-05-10T02:53:21;11.40;;;6.10;;
77880;SDS011;67077;50.298;18.996;2023-05-10T02:55:53;12.20;;;6.00;;
77880;SDS011;67077;50.298;18.996;2023-05-10T02:58:25;11.10;;;6.80;;
77880;SDS011;67077;50.298;18.996;2023-05-10T03:00:54;17.00;;;6.90;;
77880;SDS011;67077;50.298;18.996;2023-05-10T03:03:22;14.70;;;6.80;;
77880;SDS011;67077;50.298;18.996;2023-05-10T03:05:50;11.60;;;6.70;;
77880;SDS011;67077;50.298;18.996;2023-05-10T03:08:21;13.10;;;6.80;;
77880;SDS011;67077;50.298;18.996;2023-05-10T03:10:55;12.30;;;7.10;;
77880;SDS011;67077;50.298;18.996;2023-05-10T03:13:32;14.70;;;7.50;;
77880;SDS011;67077;50.298;18.996;2023-05-10T03:16:12;14.00;;;7.00;;
77880;SDS011;67077;50.298;18.996;2023-05-10T03:18:45;15.00;;;6.60;;
77880;SDS011;67077;50.298;18.996;2023-05-10T03:21:22;14.50;;;6.60;;
77880;SDS011;67077;50.298;18.996;2023-05-10T03:24:04;10.70;;;6.10;;
77880;SDS011;67077;50.298;18.996;2023-05-10T03:26:34;13.30;;;6.30;;
77880;SDS011;67077;50.298;18.996;2023-05-10T03:29:04;13.70;;;6.40;;
77880;SDS011;67077;50.298;18.996;2023-05-10T03:31:34;11.70;;;6.60;;
77880;SDS011;67077;50.298;18.996;2023-05-10T03:34:02;11.70;;;6.30;;
77880;SDS011;67077;50.298;18.996;2023-05-10T03:36:30;14.90;;;7.60;;
77880;SDS011;67077;50.298;18.996;2023-05-10T03:38:58;11.80;;;6.50;;
77880;SDS011;67077;50.298;18.996;2023-05-10T03:41:27;15.50;;;6.80;;
77880;SDS011;67077;50.298;18.996;2023-05-10T03:43:55;14.90;;;7.00;;
77880;SDS011;67077;50.298;18.996;2023-05-10T03:46:23;14.20;;;6.20;;
77880;SDS011;67077;50.298;18.996;2023-05-10T03:48:51;12.10;;;6.70;;
77880;SDS011;67077;50.298;18.996;2023-05-10T03:51:19;12.40;;;6.70;;
77880;SDS011;67077;50.298;18.996;2023-05-10T03:53:47;13.80;;;6.20;;
77880;SDS011;67077;50.298;18.996;2023-05-10T03:56:15;14.70;;;6.80;;
77880;SDS011;67077;50.298;18.996;2023-05-10T03:58:44;19.50;;;6.50;;
77880;SDS011;67077;50.298;18.996;2023-05-10T04:01:12;12.10;;;6.60;;
77880;SDS011;67077;50.298;18.996;2023-05-10T04:03:40;14.90;;;7.30;;
77880;SDS011;67077;50.298;18.996;2023-05-10T04:06:08;15.10;;;6.90;;
77880;SDS011;67077;50.298;18.996;2023-05-10T04:08:39;16.70;;;7.10;;
77880;SDS011;67077;50.298;18.996;2023-05-10T04:11:07;17.20;;;7.20;;
77880;SDS011;67077;50.298;18.996;2023-05-10T04:13:36;12.60;;;6.60;;
77880;SDS011;67077;50.298;18.996;2023-05-10T04:16:04;14.70;;;6.70;;
77880;SDS011;67077;50.298;18.996;2023-05-10T04:18:33;15.20;;;6.90;;
77880;SDS011;67077;50.298;18.996;2023-05-10T04:21:01;12.00;;;6.90;;
77880;SDS011;67077;50.298;18.996;2023-05-10T04:23:29;15.60;;;6.70;;
77880;SDS011;67077;50.298;18.996;2023-05-10T04:26:00;16.30;;;6.70;;
77880;SDS011;67077;50.298;18.996;2023-05-10T04:28:29;11.50;;;6.70;;
77880;SDS011;67077;50.298;18.996;2023-05-10T04:31:04;14.00;;;7.20;;
77880;SDS011;67077;50.298;18.996;2023-05-10T04:33:34;13.60;;;7.10;;
77880;SDS011;67077;50.298;18.996;2023-05-10T04:36:03;16.50;;;7.40;;
77880;SDS011;67077;50.298;18.996;2023-05-10T04:38:31;14.30;;;7.40;;
77880;SDS011;67077;50.298;18.996;2023-05-10T04:41:09;17.40;;;7.30;;
77880;SDS011;67077;50.298;18.996;2023-05-10T04:43:38;13.50;;;8.00;;
77880;SDS011;67077;50.298;18.996;2023-05-10T04:46:06;15.50;;;8.30;;
77880;SDS011;67077;50.298;18.996;2023-05-10T04:48:37;14.00;;;8.20;;
77880;SDS011;67077;50.298;18.996;2023-05-10T04:51:05;13.50;;;7.50;;
77880;SDS011;67077;50.298;18.996;2023-05-10T04:53:34;19.90;;;8.30;;
77880;SDS011;67077;50.298;18.996;2023-05-10T04:56:03;17.00;;;8.30;;
77880;SDS011;67077;50.298;18.996;2023-05-10T05:01:09;15.50;;;8.20;;
77880;SDS011;67077;50.298;18.996;2023-05-10T05:03:45;13.40;;;7.40;;
77880;SDS011;67077;50.298;18.996;2023-05-10T05:06:22;12.10;;;7.80;;
77880;SDS011;67077;50.298;18.996;2023-05-10T05:09:00;13.70;;;8.30;;
77880;SDS011;67077;50.298;18.996;2023-05-10T05:11:48;15.00;;;7.40;;
77880;SDS011;67077;50.298;18.996;2023-05-10T05:14:16;16.30;;;8.70;;
77880;SDS011;67077;50.298;18.996;2023-05-10T05:16:44;14.10;;;8.20;;
77880;SDS011;67077;50.298;18.996;2023-05-10T05:19:12;14.70;;;8.10;;
77880;SDS011;67077;50.298;18.996;2023-05-10T05:21:39;17.20;;;8.00;;
77880;SDS011;67077;50.298;18.996;2023-05-10T05:24:10;16.00;;;8.20;;
77880;SDS011;67077;50.298;18.996;2023-05-10T05:26:40;13.70;;;8.00;;
77880;SDS011;67077;50.298;18.996;2023-05-10T05:29:08;13.70;;;7.70;;
77880;SDS011;67077;50.298;18.996;2023-05-10T05:31:38;16.90;;;9.20;;
77880;SDS011;67077;50.298;18.996;2023-05-10T05:34:07;15.50;;;7.90;;
77880;SDS011;67077;50.298;18.996;2023-05-10T05:36:36;12.20;;;6.90;;
77880;SDS011;67077;50.298;18.996;2023-05-10T05:39:07;13.10;;;7.60;;
77880;SDS011;67077;50.298;18.996;2023-05-10T05:41:35;14.90;;;7.30;;
77880;SDS011;67077;50.298;18.996;2023-05-10T05:44:08;14.10;;;7.90;;
77880;SDS011;67077;50.298;18.996;2023-05-10T05:46:37;11.60;;;7.20;;
77880;SDS011;67077;50.298;18.996;2023-05-10T05:49:06;13.00;;;7.60;;
77880;SDS011;67077;50.298;18.996;2023-05-10T05:51:35;13.30;;;7.20;;
77880;SDS011;67077;50.298;18.996;2023-05-10T05:54:03;14.80;;;7.20;;
77880;SDS011;67077;50.298;18.996;2023-05-10T05:56:32;13.40;;;7.70;;
77880;SDS011;67077;50.298;18.996;2023-05-10T05:59:03;16.10;;;7.20;;
77880;SDS011;67077;50.298;18.996;2023-05-10T06:01:33;13.30;;;6.40;;
77880;SDS011;67077;50.298;18.996;2023-05-10T06:04:03;17.70;;;7.10;;
77880;SDS011;67077;50.298;18.996;2023-05-10T06:06:33;17.10;;;7.70;;
77880;SDS011;67077;50.298;18.996;2023-05-10T06:09:03;14.80;;;7.60;;
77880;SDS011;67077;50.298;18.996;2023-05-10T06:11:32;19.10;;;7.00;;
77880;SDS011;67077;50.298;18.996;2023-05-10T06:14:02;11.10;;;7.00;;
77880;SDS011;67077;50.298;18.996;2023-05-10T06:16:32;13.70;;;6.50;;
77880;SDS011;67077;50.298;18.996;2023-05-10T06:19:06;10.70;;;6.80;;
77880;SDS011;67077;50.298;18.996;2023-05-10T06:21:37;12.10;;;6.20;;
77880;SDS011;67077;50.298;18.996;2023-05-10T06:24:15;15.40;;;6.30;;
77880;SDS011;67077;50.298;18.996;2023-05-10T06:26:46;13.90;;;6.40;;
77880;SDS011;67077;50.298;18.996;2023-05-10T06:29:14;14.60;;;6.50;;
77880;SDS011;67077;50.298;18.996;2023-05-10T06:31:43;13.60;;;6.30;;
77880;SDS011;67077;50.298;18.996;2023-05-10T06:34:27;15.40;;;6.10;;
77880;SDS011;67077;50.298;18.996;2023-05-10T06:36:57;11.50;;;6.50;;
77880;SDS011;67077;50.298;18.996;2023-05-10T06:39:26;12.20;;;6.40;;
77880;SDS011;67077;50.298;18.996;2023-05-10T06:41:59;9.90;;;5.20;;
77880;SDS011;67077;50.298;18.996;2023-05-10T06:44:37;16.90;;;6.40;;
77880;SDS011;67077;50.298;18.996;2023-05-10T06:47:06;13.10;;;5.40;;
77880;SDS011;67077;50.298;18.996;2023-05-10T06:49:39;8.70;;;5.50;;
77880;SDS011;67077;50.298;18.996;2023-05-10T06:52:12;13.80;;;5.20;;
77880;SDS011;67077;50.298;18.996;2023-05-10T06:54:43;7.80;;;4.70;;
77880;SDS011;67077;50.298;18.996;2023-05-10T06:57:13;12.70;;;5.60;;
77880;SDS011;67077;50.298;18.996;2023-05-10T06:59:42;11.00;;;4.80;;
77880;SDS011;67077;50.298;18.996;2023-05-10T07:02:10;10.40;;;5.10;;
77880;SDS011;67077;50.298;18.996;2023-05-10T07:04:52;10.00;;;4.80;;
77880;SDS011;67077;50.298;18.996;2023-05-10T07:07:49;8.70;;;4.60;;
77880;SDS011;67077;50.298;18.996;2023-05-10T07:10:22;10.50;;;4.80;;
77880;SDS011;67077;50.298;18.996;2023-05-10T07:15:41;12.10;;;4.20;;
77880;SDS011;67077;50.298;18.996;2023-05-10T07:18:15;10.00;;;4.60;;
77880;SDS011;67077;50.298;18.996;2023-05-10T07:21:00;8.40;;;5.10;;
77880;SDS011;67077;50.298;18.996;2023-05-10T07:24:03;12.40;;;5.70;;
77880;SDS011;67077;50.298;18.996;2023-05-10T07:27:29;9.20;;;4.40;;
77880;SDS011;67077;50.298;18.996;2023-05-10T07:30:06;8.50;;;4.40;;
77880;SDS011;67077;50.298;18.996;2023-05-10T07:32:49;7.20;;;4.10;;
77880;SDS011;67077;50.298;18.996;2023-05-10T07:35:18;11.30;;;5.00;;
77880;SDS011;67077;50.298;18.996;2023-05-10T07:37:46;9.20;;;4.40;;
77880;SDS011;67077;50.298;18.996;2023-05-10T07:40:15;8.60;;;3.80;;
77880;SDS011;67077;50.298;18.996;2023-05-10T07:42:44;8.70;;;4.40;;
77880;SDS011;67077;50.298;18.996;2023-05-10T07:45:13;10.80;;;4.20;;
77880;SDS011;67077;50.298;18.996;2023-05-10T07:47:45;6.50;;;3.50;;
77880;SDS011;67077;50.298;18.996;2023-05-10T07:50:14;6.90;;;2.80;;
77880;SDS011;67077;50.298;18.996;2023-05-10T07:52:43;6.70;;;3.60;;
77880;SDS011;67077;50.298;18.996;2023-05-10T07:55:12;6.30;;;3.50;;
77880;SDS011;67077;50.298;18.996;2023-05-10T07:57:41;8.20;;;2.80;;
77880;SDS011;67077;50.298;18.996;2023-05-10T08:00:12;5.40;;;2.60;;
77880;SDS011;67077;50.298;18.996;2023-05-10T08:02:41;4.60;;;3.00;;
77880;SDS011;67077;50.298;18.996;2023-05-10T08:05:10;3.10;;;2.20;;
77880;SDS011;67077;50.298;18.996;2023-05-10T08:07:41;4.20;;;2.50;;
77880;SDS011;67077;50.298;18.996;2023-05-10T08:10:10;6.00;;;2.40;;
77880;SDS011;67077;50.298;18.996;2023-05-10T08:12:45;5.20;;;2.30;;
77880;SDS011;67077;50.298;18.996;2023-05-10T08:15:13;3.70;;;2.50;;
77880;SDS011;67077;50.298;18.996;2023-05-10T08:17:41;4.60;;;2.70;;
77880;SDS011;67077;50.298;18.996;2023-05-10T08:20:11;6.50;;;3.20;;
77880;SDS011;67077;50.298;18.996;2023-05-10T08:22:40;5.90;;;2.50;;
77880;SDS011;67077;50.298;18.996;2023-05-10T08:25:09;4.90;;;2.60;;
77880;SDS011;67077;50.298;18.996;2023-05-10T08:27:38;6.30;;;2.90;;
77880;SDS011;67077;50.298;18.996;2023-05-10T08:30:06;3.80;;;2.60;;
77880;SDS011;67077;50.298;18.996;2023-05-10T08:32:36;4.50;;;2.80;;
77880;SDS011;67077;50.298;18.996;2023-05-10T08:35:05;5.60;;;2.50;;
77880;SDS011;67077;50.298;18.996;2023-05-10T08:37:34;4.60;;;2.30;;
77880;SDS011;67077;50.298;18.996;2023-05-10T08:40:02;4.60;;;2.20;;
77880;SDS011;67077;50.298;18.996;2023-05-10T08:42:31;3.80;;;2.30;;
77880;SDS011;67077;50.298;18.996;2023-05-10T08:45:04;2.50;;;2.20;;
77880;SDS011;67077;50.298;18.996;2023-05-10T08:47:34;4.70;;;2.40;;
77880;SDS011;67077;50.298;18.996;2023-05-10T08:50:06;3.70;;;2.30;;
77880;SDS011;67077;50.298;18.996;2023-05-10T08:52:35;3.30;;;2.20;;
77880;SDS011;67077;50.298;18.996;2023-05-10T08:55:09;2.60;;;2.10;;
77880;SDS011;67077;50.298;18.996;2023-05-10T08:57:37;3.40;;;2.10;;
77880;SDS011;67077;50.298;18.996;2023-05-10T09:00:06;6.80;;;2.80;;
77880;SDS011;67077;50.298;18.996;2023-05-10T09:02:37;4.30;;;2.30;;
77880;SDS011;67077;50.298;18.996;2023-05-10T09:05:07;3.70;;;2.30;;
77880;SDS011;67077;50.298;18.996;2023-05-10T09:07:36;3.70;;;2.40;;
77880;SDS011;67077;50.298;18.996;2023-05-10T09:10:04;10.10;;;3.00;;
77880;SDS011;67077;50.298;18.996;2023-05-10T09:12:35;7.10;;;3.10;;
77880;SDS011;67077;50.298;18.996;2023-05-10T09:15:07;6.60;;;3.10;;
77880;SDS011;67077;50.298;18.996;2023-05-10T09:17:41;4.30;;;2.60;;
77880;SDS011;67077;50.298;18.996;2023-05-10T09:20:11;6.20;;;2.70;;
77880;SDS011;67077;50.298;18.996;2023-05-10T09:22:40;5.00;;;2.50;;
77880;SDS011;67077;50.298;18.996;2023-05-10T09:25:09;4.00;;;2.30;;
77880;SDS011;67077;50.298;18.996;2023-05-10T09:27:40;5.60;;;2.90;;
77880;SDS011;67077;50.298;18.996;2023-05-10T09:30:16;5.30;;;2.50;;
77880;SDS011;67077;50.298;18.996;2023-05-10T09:32:53;4.20;;;2.60;;
77880;SDS011;67077;50.298;18.996;2023-05-10T09:35:24;5.20;;;2.50;;
77880;SDS011;67077;50.298;18.996;2023-05-10T09:37:55;5.20;;;2.90;;
77880;SDS011;67077;50.298;18.996;2023-05-10T09:40:28;3.30;;;2.20;;
77880;SDS011;67077;50.298;18.996;2023-05-10T09:43:02;5.90;;;2.40;;
77880;SDS011;67077;50.298;18.996;2023-05-10T09:45:32;6.30;;;2.60;;
77880;SDS011;67077;50.298;18.996;2023-05-10T09:48:02;4.20;;;2.50;;
77880;SDS011;67077;50.298;18.996;2023-05-10T09:50:31;6.60;;;2.90;;
77880;SDS011;67077;50.298;18.996;2023-05-10T09:53:00;3.50;;;2.60;;
77880;SDS011;67077;50.298;18.996;2023-05-10T09:55:38;3.50;;;2.20;;
77880;SDS011;67077;50.298;18.996;2023-05-10T09:58:09;3.50;;;2.20;;
77880;SDS011;67077;50.298;18.996;2023-05-10T10:00:42;3.90;;;2.50;;
77880;SDS011;67077;50.298;18.996;2023-05-10T10:03:18;5.60;;;2.70;;
77880;SDS011;67077;50.298;18.996;2023-05-10T10:05:48;6.00;;;2.50;;
77880;SDS011;67077;50.298;18.996;2023-05-10T10:08:17;7.40;;;2.80;;
77880;SDS011;67077;50.298;18.996;2023-05-10T10:10:46;9.00;;;2.70;;
77880;SDS011;67077;50.298;18.996;2023-05-10T10:13:14;5.50;;;2.40;;
77880;SDS011;67077;50.298;18.996;2023-05-10T10:15:43;4.00;;;2.60;;
77880;SDS011;67077;50.298;18.996;2023-05-10T10:18:13;3.70;;;2.40;;
77880;SDS011;67077;50.298;18.996;2023-05-10T10:20:46;5.80;;;2.30;;
77880;SDS011;67077;50.298;18.996;2023-05-10T10:23:14;3.50;;;2.20;;
77880;SDS011;67077;50.298;18.996;2023-05-10T10:25:43;5.50;;;2.50;;
77880;SDS011;67077;50.298;18.996;2023-05-10T10:28:19;5.80;;;2.60;;
77880;SDS011;67077;50.298;18.996;2023-05-10T10:31:02;3.40;;;2.30;;
77880;SDS011;67077;50.298;18.996;2023-05-10T10:36:46;4.00;;;2.50;;
77880;SDS011;67077;50.298;18.996;2023-05-10T10:39:15;7.90;;;2.50;;
77880;SDS011;67077;50.298;18.996;2023-05-10T10:41:55;5.60;;;2.50;;
77880;SDS011;67077;50.298;18.996;2023-05-10T10:44:26;6.50;;;3.00;;
77880;SDS011;67077;50.298;18.996;2023-05-10T10:49:38;6.40;;;2.50;;
77880;SDS011;67077;50.298;18.996;2023-05-10T10:52:13;5.50;;;2.90;;
77880;SDS011;67077;50.298;18.996;2023-05-10T10:54:51;7.00;;;2.60;;
77880;SDS011;67077;50.298;18.996;2023-05-10T11:05:46;6.40;;;2.60;;
77880;SDS011;67077;50.298;18.996;2023-05-10T11:08:21;4.70;;;2.40;;
77880;SDS011;67077;50.298;18.996;2023-05-10T11:11:01;5.30;;;2.60;;
77880;SDS011;67077;50.298;18.996;2023-05-10T11:13:40;6.10;;;2.90;;
77880;SDS011;67077;50.298;18.996;2023-05-10T11:16:21;7.20;;;2.80;;
77880;SDS011;67077;50.298;18.996;2023-05-10T11:19:04;4.90;;;2.80;;
77880;SDS011;67077;50.298;18.996;2023-05-10T11:21:45;4.40;;;2.50;;
77880;SDS011;67077;50.298;18.996;2023-05-10T11:24:17;6.50;;;2.70;;
77880;SDS011;67077;50.298;18.996;2023-05-10T11:26:49;5.30;;;2.60;;
77880;SDS011;67077;50.298;18.996;2023-05-10T11:29:20;5.70;;;2.80;;
77880;SDS011;67077;50.298;18.996;2023-05-10T11:31:48;4.10;;;2.40;;
77880;SDS011;67077;50.298;18.996;2023-05-10T11:34:24;4.80;;;2.70;;
77880;SDS011;67077;50.298;18.996;2023-05-10T11:36:57;6.00;;;2.60;;
77880;SDS011;67077;50.298;18.996;2023-05-10T11:39:30;7.00;;;3.10;;
77880;SDS011;67077;50.298;18.996;2023-05-10T11:41:59;3.60;;;2.70;;
77880;SDS011;67077;50.298;18.996;2023-05-10T11:44:29;4.10;;;2.90;;
77880;SDS011;67077;50.298;18.996;2023-05-10T11:47:00;5.70;;;3.20;;
77880;SDS011;67077;50.298;18.996;2023-05-10T11:49:29;5.70;;;2.80;;
77880;SDS011;67077;50.298;18.996;2023-05-10T11:52:13;6.70;;;2.80;;
77880;SDS011;67077;50.298;18.996;2023-05-10T11:54:55;5.60;;;2.80;;
77880;SDS011;67077;50.298;18.996;2023-05-10T11:57:25;4.60;;;2.40;;
77880;SDS011;67077;50.298;18.996;2023-05-10T11:59:56;4.90;;;2.60;;
77880;SDS011;67077;50.298;18.996;2023-05-10T12:02:25;3.90;;;2.70;;
77880;SDS011;67077;50.298;18.996;2023-05-10T12:04:54;5.80;;;2.60;;
77880;SDS011;67077;50.298;18.996;2023-05-10T12:07:25;4.00;;;2.70;;
77880;SDS011;67077;50.298;18.996;2023-05-10T12:12:46;6.30;;;2.70;;
77880;SDS011;67077;50.298;18.996;2023-05-10T12:15:20;4.30;;;2.40;;
77880;SDS011;67077;50.298;18.996;2023-05-10T12:17:54;4.10;;;2.20;;
77880;SDS011;67077;50.298;18.996;2023-05-10T12:20:26;5.00;;;2.30;;
77880;SDS011;67077;50.298;18.996;2023-05-10T12:22:59;5.60;;;2.70;;
77880;SDS011;67077;50.298;18.996;2023-05-10T12:25:34;3.40;;;2.20;;
77880;SDS011;67077;50.298;18.996;2023-05-10T12:28:07;4.20;;;2.60;;
77880;SDS011;67077;50.298;18.996;2023-05-10T12:30:38;5.50;;;3.20;;
77880;SDS011;67077;50.298;18.996;2023-05-10T12:33:12;3.70;;;2.80;;
77880;SDS011;67077;50.298;18.996;2023-05-10T12:35:49;6.50;;;3.00;;
77880;SDS011;67077;50.298;18.996;2023-05-10T12:38:39;7.40;;;2.90;;
77880;SDS011;67077;50.298;18.996;2023-05-10T12:41:15;6.10;;;2.70;;
77880;SDS011;67077;50.298;18.996;2023-05-10T12:43:51;4.50;;;2.90;;
77880;SDS011;67077;50.298;18.996;2023-05-10T12:46:20;3.90;;;2.80;;
77880;SDS011;67077;50.298;18.996;2023-05-10T12:48:49;4.80;;;2.80;;
77880;SDS011;67077;50.298;18.996;2023-05-10T12:51:23;7.60;;;3.40;;
77880;SDS011;67077;50.298;18.996;2023-05-10T12:53:53;5.80;;;3.90;;
77880;SDS011;67077;50.298;18.996;2023-05-10T12:56:24;8.40;;;4.00;;
77880;SDS011;67077;50.298;18.996;2023-05-10T12:58:56;6.00;;;3.20;;
77880;SDS011;67077;50.298;18.996;2023-05-10T13:01:27;6.90;;;3.00;;
77880;SDS011;67077;50.298;18.996;2023-05-10T13:03:57;4.70;;;2.90;;
77880;SDS011;67077;50.298;18.996;2023-05-10T13:06:28;5.40;;;2.60;;
77880;SDS011;67077;50.298;18.996;2023-05-10T13:08:58;5.70;;;3.00;;
77880;SDS011;67077;50.298;18.996;2023-05-10T13:11:35;5.40;;;2.70;;
77880;SDS011;67077;50.298;18.996;2023-05-10T13:14:07;5.20;;;2.90;;
77880;SDS011;67077;50.298;18.996;2023-05-10T13:16:36;4.80;;;2.80;;
77880;SDS011;67077;50.298;18.996;2023-05-10T13:19:05;5.50;;;3.20;;
77880;SDS011;67077;50.298;18.996;2023-05-10T13:21:33;5.90;;;3.70;;
77880;SDS011;67077;50.298;18.996;2023-05-10T13:24:03;5.40;;;2.70;;
77880;SDS011;67077;50.298;18.996;2023-05-10T13:26:33;3.70;;;2.60;;
77880;SDS011;67077;50.298;18.996;2023-05-10T13:29:03;4.90;;;2.60;;
77880;SDS011;67077;50.298;18.996;2023-05-10T13:31:33;5.50;;;3.00;;
77880;SDS011;67077;50.298;18.996;2023-05-10T13:34:04;6.50;;;2.90;;
77880;SDS011;67077;50.298;18.996;2023-05-10T13:36:52;7.30;;;3.10;;
77880;SDS011;67077;50.298;18.996;2023-05-10T13:39:23;4.40;;;2.90;;
77880;SDS011;67077;50.298;18.996;2023-05-10T13:41:54;3.60;;;2.70;;
77880;SDS011;67077;50.298;18.996;2023-05-10T13:44:23;7.00;;;2.90;;
77880;SDS011;67077;50.298;18.996;2023-05-10T13:46:52;6.90;;;2.80;;
77880;SDS011;67077;50.298;18.996;2023-05-10T13:49:25;4.60;;;2.40;;
77880;SDS011;67077;50.298;18.996;2023-05-10T13:51:56;3.80;;;2.40;;
77880;SDS011;67077;50.298;18.996;2023-05-10T13:54:24;4.00;;;2.60;;
77880;SDS011;67077;50.298;18.996;2023-05-10T13:56:54;9.30;;;2.70;;
77880;SDS011;67077;50.298;18.996;2023-05-10T13:59:24;5.40;;;2.60;;
77880;SDS011;67077;50.298;18.996;2023-05-10T14:01:52;4.20;;;3.10;;
77880;SDS011;67077;50.298;18.996;2023-05-10T14:04:21;6.90;;;3.30;;
77880;SDS011;67077;50.298;18.996;2023-05-10T14:06:49;5.50;;;3.20;;
77880;SDS011;67077;50.298;18.996;2023-05-10T14:09:18;3.10;;;2.60;;
77880;SDS011;67077;50.298;18.996;2023-05-10T14:11:47;5.00;;;2.80;;
77880;SDS011;67077;50.298;18.996;2023-05-10T14:14:15;4.80;;;2.70;;
77880;SDS011;67077;50.298;18.996;2023-05-10T14:16:44;6.30;;;3.60;;
77880;SDS011;67077;50.298;18.996;2023-05-10T14:19:13;6.70;;;3.90;;
77880;SDS011;67077;50.298;18.996;2023-05-10T14:21:42;5.60;;;3.60;;
77880;SDS011;67077;50.298;18.996;2023-05-10T14:24:11;8.10;;;3.40;;
77880;SDS011;67077;50.298;18.996;2023-05-10T14:26:39;4.90;;;2.80;;
77880;SDS011;67077;50.298;18.996;2023-05-10T14:29:10;6.50;;;2.80;;
77880;SDS011;67077;50.298;18.996;2023-05-10T14:31:39;6.70;;;3.20;;
77880;SDS011;67077;50.298;18.996;2023-05-10T14:34:08;5.60;;;2.70;;
77880;SDS011;67077;50.298;18.996;2023-05-10T14:36:36;4.10;;;2.50;;
77880;SDS011;67077;50.298;18.996;2023-05-10T14:39:05;5.60;;;3.10;;
77880;SDS011;67077;50.298;18.996;2023-05-10T14:41:43;6.10;;;3.10;;
77880;SDS011;67077;50.298;18.996;2023-05-10T14:44:17;6.30;;;3.00;;
77880;SDS011;67077;50.298;18.996;2023-05-10T14:46:46;5.60;;;3.10;;
77880;SDS011;67077;50.298;18.996;2023-05-10T14:49:16;9.30;;;2.90;;
77880;SDS011;67077;50.298;18.996;2023-05-10T14:51:45;7.50;;;2.90;;
77880;SDS011;67077;50.298;18.996;2023-05-10T14:54:14;3.70;;;2.50;;
77880;SDS011;67077;50.298;18.996;2023-05-10T14:56:42;5.00;;;3.20;;
77880;SDS011;67077;50.298;18.996;2023-05-10T14:59:12;6.20;;;3.30;;
77880;SDS011;67077;50.298;18.996;2023-05-10T15:01:41;7.40;;;4.40;;
77880;SDS011;67077;50.298;18.996;2023-05-10T15:04:10;5.50;;;3.30;;
77880;SDS011;67077;50.298;18.996;2023-05-10T15:06:40;8.00;;;3.20;;
77880;SDS011;67077;50.298;18.996;2023-05-10T15:09:09;6.10;;;3.30;;
77880;SDS011;67077;50.298;18.996;2023-05-10T15:11:37;5.50;;;3.10;;
77880;SDS011;67077;50.298;18.996;2023-05-10T15:14:06;6.90;;;3.30;;
77880;SDS011;67077;50.298;18.996;2023-05-10T15:16:38;6.20;;;2.90;;
77880;SDS011;67077;50.298;18.996;2023-05-10T15:19:06;7.00;;;2.90;;
77880;SDS011;67077;50.298;18.996;2023-05-10T15:21:35;4.00;;;3.10;;
77880;SDS011;67077;50.298;18.996;2023-05-10T15:24:08;5.60;;;2.80;;
77880;SDS011;67077;50.298;18.996;2023-05-10T15:26:39;6.90;;;3.10;;
77880;SDS011;67077;50.298;18.996;2023-05-10T15:29:13;5.40;;;2.80;;